Time;durP1;ratioP1;P1;durP2;ratioP2;P2;SDS_P1;SDS_P2;PMS_P1;PMS_P2;Temp;Humidity;BMP_temperature;BMP_pressure;BME280_temperature;BME280_humidity;BME280_pressure;Samples;Min_cycle;Max_cycle;Signal;HPM_P1;HPM_P2
2023/04/23 00:01:38;;;;;;;39.67;22.38;;;;;;;;;;6247835;23;20019;-75
2023/04/23 00:04:05;;;;;;;38.75;21.15;;;;;;;;;;6274173;22;19992;-76
2023/04/23 00:06:32;;;;;;;38.38;20.95;;;;;;;;;;6246962;23;20016;-76
2023/04/23 00:08:59;;;;;;;37.08;21.80;;;;;;;;;;6272991;22;20067;-75
2023/04/23 00:11:25;;;;;;;38.55;22.23;;;;;;;;;;6272087;22;20056;-75
2023/04/23 00:13:50;;;;;;;36.97;20.83;;;;;;;;;;6271685;23;19992;-75
2023/04/23 00:16:18;;;;;;;36.00;20.83;;;;;;;;;;6244127;23;20009;-74
2023/04/23 00:18:43;;;;;;;37.83;21.67;;;;;;;;;;6272107;22;19984;-75
2023/04/23 00:21:08;;;;;;;38.85;23.05;;;;;;;;;;6270771;22;19998;-75
2023/04/23 00:23:34;;;;;;;34.30;20.98;;;;;;;;;;6272556;23;19992;-75
2023/04/23 00:25:59;;;;;;;36.92;21.05;;;;;;;;;;6272110;23;20012;-75
2023/04/23 00:28:24;;;;;;;37.67;20.88;;;;;;;;;;6271251;23;19996;-74
2023/04/23 00:30:50;;;;;;;38.55;21.23;;;;;;;;;;6270944;23;20003;-75
2023/04/23 00:33:15;;;;;;;38.17;20.88;;;;;;;;;;6245194;23;20007;-75
2023/04/23 00:35:41;;;;;;;40.20;22.50;;;;;;;;;;6270905;22;20474;-75
2023/04/23 00:38:06;;;;;;;36.33;20.45;;;;;;;;;;6270853;23;19984;-74
2023/04/23 00:40:31;;;;;;;36.15;21.77;;;;;;;;;;6270776;23;20019;-74
2023/04/23 00:42:57;;;;;;;37.42;21.02;;;;;;;;;;6271317;23;20004;-76
2023/04/23 00:45:22;;;;;;;39.25;21.77;;;;;;;;;;6244758;23;20008;-74
2023/04/23 00:47:48;;;;;;;38.67;22.08;;;;;;;;;;6244556;23;20007;-75
2023/04/23 00:50:14;;;;;;;36.92;20.58;;;;;;;;;;6267479;22;20010;-75
2023/04/23 00:52:39;;;;;;;39.28;21.73;;;;;;;;;;6246200;23;20004;-76
2023/04/23 00:55:07;;;;;;;34.45;19.63;;;;;;;;;;6243464;23;20016;-75
2023/04/23 00:57:33;;;;;;;40.88;21.52;;;;;;;;;;6269684;23;19992;-76
2023/04/23 00:59:59;;;;;;;38.80;20.95;;;;;;;;;;6243469;23;19992;-74
2023/04/23 01:02:28;;;;;;;39.45;21.23;;;;;;;;;;6269680;23;20077;-75
2023/04/23 01:04:54;;;;;;;36.70;21.25;;;;;;;;;;6269027;23;20008;-75
2023/04/23 01:07:20;;;;;;;38.67;21.25;;;;;;;;;;6243859;23;19997;-75
2023/04/23 01:09:48;;;;;;;36.15;20.42;;;;;;;;;;6270846;23;20012;-75
2023/04/23 01:12:14;;;;;;;36.20;20.27;;;;;;;;;;6270761;23;20008;-75
2023/04/23 01:14:40;;;;;;;35.75;20.08;;;;;;;;;;6244136;23;20023;-75
2023/04/23 01:17:07;;;;;;;33.80;19.52;;;;;;;;;;6245754;23;20008;-76
2023/04/23 01:19:33;;;;;;;33.33;19.15;;;;;;;;;;6270197;23;20000;-76
2023/04/23 01:22:00;;;;;;;36.63;19.92;;;;;;;;;;6219961;23;19996;-75
2023/04/23 01:24:26;;;;;;;34.35;20.08;;;;;;;;;;6271452;23;20008;-75
2023/04/23 01:26:52;;;;;;;34.25;18.73;;;;;;;;;;6270268;23;20031;-75
2023/04/23 01:29:18;;;;;;;33.42;19.45;;;;;;;;;;6244245;23;20004;-76
2023/04/23 01:31:44;;;;;;;33.40;19.55;;;;;;;;;;6272268;23;20024;-76
2023/04/23 01:34:10;;;;;;;31.25;18.27;;;;;;;;;;6270110;23;20043;-75
2023/04/23 01:36:36;;;;;;;32.95;17.95;;;;;;;;;;6270632;23;20020;-75
2023/04/23 01:39:01;;;;;;;31.40;19.15;;;;;;;;;;6269474;23;19992;-76
2023/04/23 01:41:27;;;;;;;31.80;18.15;;;;;;;;;;6244066;23;20003;-74
2023/04/23 01:43:53;;;;;;;29.67;17.05;;;;;;;;;;6244534;23;20004;-75
2023/04/23 01:46:20;;;;;;;30.10;17.27;;;;;;;;;;6244582;23;20030;-75
2023/04/23 01:48:45;;;;;;;28.73;16.88;;;;;;;;;;6269365;22;20008;-74
2023/04/23 01:51:10;;;;;;;29.58;17.25;;;;;;;;;;6245734;23;20056;-76
2023/04/23 01:53:36;;;;;;;28.13;16.73;;;;;;;;;;6271048;23;19984;-75
2023/04/23 01:56:02;;;;;;;29.90;16.20;;;;;;;;;;6247155;23;19996;-75
2023/04/23 01:58:27;;;;;;;28.40;16.58;;;;;;;;;;6271613;22;20008;-75
2023/04/23 02:00:53;;;;;;;28.77;16.80;;;;;;;;;;6272791;23;20056;-75
2023/04/23 02:03:18;;;;;;;27.10;15.98;;;;;;;;;;6272170;23;20067;-74
2023/04/23 02:05:44;;;;;;;27.25;16.85;;;;;;;;;;6271000;23;20011;-74
2023/04/23 02:08:09;;;;;;;24.23;15.35;;;;;;;;;;6272607;23;20008;-75
2023/04/23 02:10:35;;;;;;;26.70;15.73;;;;;;;;;;6246414;23;20008;-76
2023/04/23 02:13:01;;;;;;;27.67;15.95;;;;;;;;;;6245713;23;20020;-75
2023/04/23 02:15:27;;;;;;;25.13;14.75;;;;;;;;;;6246148;23;20054;-76
2023/04/23 02:17:52;;;;;;;27.08;15.55;;;;;;;;;;6271563;23;20004;-77
2023/04/23 02:20:19;;;;;;;26.13;16.02;;;;;;;;;;6246682;23;19996;-75
2023/04/23 02:22:46;;;;;;;24.33;14.63;;;;;;;;;;6271628;23;20007;-75
2023/04/23 02:25:14;;;;;;;25.55;15.13;;;;;;;;;;6270146;23;19984;-76
2023/04/23 02:27:39;;;;;;;23.80;14.48;;;;;;;;;;6272839;23;20065;-75
2023/04/23 02:30:07;;;;;;;25.45;15.90;;;;;;;;;;6245291;23;20004;-74
2023/04/23 02:32:32;;;;;;;23.95;14.38;;;;;;;;;;6246798;23;19996;-75
2023/04/23 02:34:58;;;;;;;24.95;15.30;;;;;;;;;;6246553;23;20008;-76
2023/04/23 02:37:23;;;;;;;24.40;14.25;;;;;;;;;;6273558;22;20004;-76
2023/04/23 02:39:49;;;;;;;24.20;15.15;;;;;;;;;;6271828;22;19996;-75
2023/04/23 02:42:14;;;;;;;22.58;14.10;;;;;;;;;;6246782;23;20004;-75
2023/04/23 02:44:39;;;;;;;24.10;14.80;;;;;;;;;;6245481;23;19988;-75
2023/04/23 02:47:05;;;;;;;26.13;14.38;;;;;;;;;;6272401;23;20019;-76
2023/04/23 02:49:30;;;;;;;23.50;15.10;;;;;;;;;;6271591;22;20070;-76
2023/04/23 02:51:56;;;;;;;22.75;14.52;;;;;;;;;;6271162;23;20015;-74
2023/04/23 02:54:21;;;;;;;21.23;13.68;;;;;;;;;;6271530;23;20008;-76
2023/04/23 02:56:46;;;;;;;22.88;14.20;;;;;;;;;;6245713;23;19992;-76
2023/04/23 02:59:12;;;;;;;21.45;13.90;;;;;;;;;;6245568;23;20008;-76
2023/04/23 03:01:37;;;;;;;21.33;13.25;;;;;;;;;;6245861;23;19992;-76
2023/04/23 03:04:03;;;;;;;20.38;12.95;;;;;;;;;;6271923;23;20004;-75
2023/04/23 03:06:30;;;;;;;20.42;12.80;;;;;;;;;;6271746;23;20039;-76
2023/04/23 03:08:55;;;;;;;20.83;12.73;;;;;;;;;;6271786;23;20012;-76
2023/04/23 03:11:21;;;;;;;20.23;13.63;;;;;;;;;;6271536;23;20030;-76
2023/04/23 03:13:47;;;;;;;20.05;12.88;;;;;;;;;;6272070;22;19999;-74
2023/04/23 03:16:12;;;;;;;22.17;13.20;;;;;;;;;;6245243;23;20044;-75
2023/04/23 03:18:38;;;;;;;20.65;13.52;;;;;;;;;;6272401;23;20004;-75
2023/04/23 03:21:03;;;;;;;20.15;12.90;;;;;;;;;;6272350;22;19991;-75
2023/04/23 03:23:29;;;;;;;19.90;13.50;;;;;;;;;;6272867;22;20012;-76
2023/04/23 03:25:54;;;;;;;19.27;12.93;;;;;;;;;;6271562;23;20000;-76
2023/04/23 03:28:19;;;;;;;19.52;13.20;;;;;;;;;;6270985;23;20008;-75
2023/04/23 03:30:45;;;;;;;20.52;13.00;;;;;;;;;;6243772;23;19988;-76
2023/04/23 03:33:10;;;;;;;17.15;11.57;;;;;;;;;;6271415;23;20008;-76
2023/04/23 03:35:36;;;;;;;18.35;12.43;;;;;;;;;;6245604;23;20052;-75
2023/04/23 03:38:01;;;;;;;21.20;13.43;;;;;;;;;;6272387;22;20011;-76
2023/04/23 03:40:26;;;;;;;17.38;11.82;;;;;;;;;;6245655;23;20016;-75
2023/04/23 03:42:52;;;;;;;18.30;12.13;;;;;;;;;;6272755;23;20004;-76
2023/04/23 03:45:17;;;;;;;18.60;12.07;;;;;;;;;;6272269;23;20050;-75
2023/04/23 03:47:42;;;;;;;16.90;11.27;;;;;;;;;;6243842;23;20004;-75
2023/04/23 03:50:09;;;;;;;18.50;12.23;;;;;;;;;;6271536;23;19992;-75
2023/04/23 03:52:34;;;;;;;17.83;11.63;;;;;;;;;;6270409;23;20004;-76
2023/04/23 03:55:01;;;;;;;18.67;11.68;;;;;;;;;;6271169;23;20023;-74
2023/04/23 03:57:26;;;;;;;17.10;11.38;;;;;;;;;;6270568;22;20039;-76
2023/04/23 03:59:51;;;;;;;17.73;11.90;;;;;;;;;;6270196;22;20032;-76
2023/04/23 04:02:19;;;;;;;18.77;12.45;;;;;;;;;;6244225;23;20008;-74
2023/04/23 04:04:44;;;;;;;17.63;11.68;;;;;;;;;;6245226;23;20004;-75
2023/04/23 04:07:11;;;;;;;16.10;11.38;;;;;;;;;;6271755;23;20428;-76
2023/04/23 04:09:37;;;;;;;17.00;11.43;;;;;;;;;;6246375;23;20004;-76
2023/04/23 04:12:03;;;;;;;18.98;12.07;;;;;;;;;;6271202;23;20005;-75
2023/04/23 04:14:29;;;;;;;17.10;11.25;;;;;;;;;;6271083;23;19996;-74
2023/04/23 04:16:55;;;;;;;15.63;11.23;;;;;;;;;;6271071;23;20032;-75
2023/04/23 04:19:21;;;;;;;15.82;11.15;;;;;;;;;;6271210;23;20062;-76
2023/04/23 04:21:46;;;;;;;16.73;11.38;;;;;;;;;;6271964;23;20032;-75
2023/04/23 04:24:12;;;;;;;19.25;12.07;;;;;;;;;;6272122;23;20466;-76
2023/04/23 04:26:37;;;;;;;15.65;11.25;;;;;;;;;;6245364;23;20222;-75
2023/04/23 04:29:03;;;;;;;16.83;10.98;;;;;;;;;;6272594;23;19993;-75
2023/04/23 04:31:29;;;;;;;18.55;12.05;;;;;;;;;;6245028;23;20042;-75
2023/04/23 04:33:55;;;;;;;16.88;11.27;;;;;;;;;;6271498;23;20008;-75
2023/04/23 04:36:21;;;;;;;15.68;11.43;;;;;;;;;;6269509;22;19999;-74
2023/04/23 04:38:48;;;;;;;17.25;11.43;;;;;;;;;;6271546;23;19992;-75
2023/04/23 04:41:14;;;;;;;20.75;11.27;;;;;;;;;;6244511;23;20079;-75
2023/04/23 04:43:40;;;;;;;16.38;11.35;;;;;;;;;;6245952;23;20012;-76
2023/04/23 04:46:05;;;;;;;15.25;10.65;;;;;;;;;;6270766;22;20074;-74
2023/04/23 04:48:30;;;;;;;15.98;10.60;;;;;;;;;;6245779;23;20004;-76
2023/04/23 04:50:56;;;;;;;15.90;10.38;;;;;;;;;;6271211;23;20008;-75
2023/04/23 04:53:22;;;;;;;13.70;9.73;;;;;;;;;;6246045;23;20016;-75
2023/04/23 04:55:47;;;;;;;14.43;10.38;;;;;;;;;;6272044;22;19992;-75
2023/04/23 04:58:13;;;;;;;15.23;10.65;;;;;;;;;;6270154;22;20023;-74
2023/04/23 05:00:38;;;;;;;16.33;11.05;;;;;;;;;;6270181;23;20001;-74
2023/04/23 05:03:04;;;;;;;16.02;11.02;;;;;;;;;;6271101;23;20009;-74
2023/04/23 05:05:31;;;;;;;14.93;10.32;;;;;;;;;;6246368;23;20007;-74
2023/04/23 05:08:01;;;;;;;16.95;10.52;;;;;;;;;;6272492;23;19992;-76
2023/04/23 05:10:27;;;;;;;14.15;10.25;;;;;;;;;;6272971;23;20009;-75
2023/04/23 05:12:53;;;;;;;15.02;10.23;;;;;;;;;;6273937;23;19992;-75
2023/04/23 05:15:19;;;;;;;16.10;10.63;;;;;;;;;;6272948;23;20022;-74
2023/04/23 05:17:44;;;;;;;14.77;10.57;;;;;;;;;;6247262;23;20003;-76
2023/04/23 05:20:10;;;;;;;15.20;10.10;;;;;;;;;;6272912;22;20004;-75
2023/04/23 05:22:40;;;;;;;14.80;10.32;;;;;;;;;;6274050;22;19993;-75
2023/04/23 05:25:06;;;;;;;15.80;11.13;;;;;;;;;;6247674;23;20023;-75
2023/04/23 05:27:32;;;;;;;13.77;9.52;;;;;;;;;;6248286;23;20004;-75
2023/04/23 05:30:04;;;;;;;14.50;9.70;;;;;;;;;;6249847;23;20030;-75
2023/04/23 05:32:29;;;;;;;13.43;9.65;;;;;;;;;;6250435;23;20023;-75
2023/04/23 05:34:55;;;;;;;14.73;10.07;;;;;;;;;;6274929;22;19989;-76
2023/04/23 05:37:20;;;;;;;14.10;9.20;;;;;;;;;;6273541;22;20004;-74
2023/04/23 05:39:45;;;;;;;13.63;9.70;;;;;;;;;;6248644;23;20042;-75
2023/04/23 05:42:12;;;;;;;14.50;9.70;;;;;;;;;;6248324;23;19988;-75
2023/04/23 05:44:37;;;;;;;15.85;10.13;;;;;;;;;;6274151;22;20035;-76
2023/04/23 05:47:03;;;;;;;15.32;9.82;;;;;;;;;;6274009;22;20047;-74
2023/04/23 05:49:28;;;;;;;13.02;9.38;;;;;;;;;;6273595;22;20022;-75
2023/04/23 05:51:53;;;;;;;13.00;9.38;;;;;;;;;;6272057;22;20040;-75
2023/04/23 05:54:19;;;;;;;13.32;9.05;;;;;;;;;;6249030;23;19992;-75
2023/04/23 05:56:44;;;;;;;13.30;9.70;;;;;;;;;;6274309;22;20012;-75
2023/04/23 05:59:10;;;;;;;13.20;9.45;;;;;;;;;;6273347;22;20011;-74
2023/04/23 06:01:36;;;;;;;11.60;8.65;;;;;;;;;;6272688;22;20008;-74
2023/04/23 06:04:02;;;;;;;12.73;8.75;;;;;;;;;;6248151;23;20062;-75
2023/04/23 06:06:27;;;;;;;12.65;8.88;;;;;;;;;;6246432;23;20072;-74
2023/04/23 06:08:52;;;;;;;13.18;8.98;;;;;;;;;;6274331;23;20032;-75
2023/04/23 06:11:18;;;;;;;14.35;9.68;;;;;;;;;;6273462;22;20012;-75
2023/04/23 06:13:44;;;;;;;12.00;8.48;;;;;;;;;;6274071;22;19992;-75
2023/04/23 06:16:09;;;;;;;14.50;9.35;;;;;;;;;;6247632;23;19993;-75
2023/04/23 06:18:36;;;;;;;16.25;9.63;;;;;;;;;;6273317;23;19995;-75
2023/04/23 06:21:03;;;;;;;13.10;9.50;;;;;;;;;;6273159;22;20019;-75
2023/04/23 06:23:29;;;;;;;15.13;10.05;;;;;;;;;;6247389;23;20004;-76
2023/04/23 06:25:55;;;;;;;12.85;8.88;;;;;;;;;;6273206;22;20016;-74
2023/04/23 06:28:20;;;;;;;13.55;9.45;;;;;;;;;;6273684;22;20004;-75
2023/04/23 06:30:46;;;;;;;15.50;10.07;;;;;;;;;;6273561;22;19996;-76
2023/04/23 06:33:12;;;;;;;14.23;9.77;;;;;;;;;;6273959;23;19992;-75
2023/04/23 06:35:37;;;;;;;14.23;10.02;;;;;;;;;;6273850;22;20015;-75
2023/04/23 06:38:02;;;;;;;13.80;9.95;;;;;;;;;;6244850;23;20000;-74
2023/04/23 06:40:28;;;;;;;13.45;9.07;;;;;;;;;;6272053;22;20008;-77
2023/04/23 06:42:53;;;;;;;12.68;8.80;;;;;;;;;;6245818;23;20027;-75
2023/04/23 06:45:19;;;;;;;11.95;8.60;;;;;;;;;;6273701;22;20008;-75
2023/04/23 06:47:44;;;;;;;13.27;9.05;;;;;;;;;;6245020;23;20008;-76
2023/04/23 06:50:10;;;;;;;13.25;8.65;;;;;;;;;;6272790;23;19988;-74
2023/04/23 06:52:35;;;;;;;13.52;8.50;;;;;;;;;;6270887;22;19996;-75
2023/04/23 06:55:01;;;;;;;13.32;8.18;;;;;;;;;;6247326;23;20012;-75
2023/04/23 06:57:27;;;;;;;12.85;8.65;;;;;;;;;;6247337;23;20012;-74
2023/04/23 06:59:52;;;;;;;13.07;8.23;;;;;;;;;;6272754;22;20333;-74
2023/04/23 07:02:18;;;;;;;14.13;8.40;;;;;;;;;;6273202;23;19992;-74
2023/04/23 07:04:43;;;;;;;11.93;7.93;;;;;;;;;;6270682;22;19992;-75
2023/04/23 07:07:09;;;;;;;12.35;8.02;;;;;;;;;;6273055;22;20004;-75
2023/04/23 07:09:34;;;;;;;14.82;7.97;;;;;;;;;;6247172;23;20031;-75
2023/04/23 07:12:01;;;;;;;13.45;7.63;;;;;;;;;;6272172;22;20008;-75
2023/04/23 07:14:26;;;;;;;11.63;7.90;;;;;;;;;;6245718;23;20020;-75
2023/04/23 07:16:53;;;;;;;10.70;7.53;;;;;;;;;;6271195;23;20067;-75
2023/04/23 07:19:18;;;;;;;12.57;7.78;;;;;;;;;;6244837;23;20022;-75
2023/04/23 07:21:44;;;;;;;10.13;7.40;;;;;;;;;;6270829;23;20004;-75
2023/04/23 07:24:10;;;;;;;12.00;7.78;;;;;;;;;;6245328;22;20023;-74
2023/04/23 07:26:35;;;;;;;12.48;7.47;;;;;;;;;;6245129;23;20022;-75
2023/04/23 07:29:02;;;;;;;10.63;7.00;;;;;;;;;;6245782;23;20020;-75
2023/04/23 07:31:28;;;;;;;9.90;6.82;;;;;;;;;;6249157;23;20035;-72
2023/04/23 07:33:55;;;;;;;12.20;7.13;;;;;;;;;;6217644;23;20004;-73
2023/04/23 07:36:20;;;;;;;10.45;6.68;;;;;;;;;;6217526;23;20008;-73
2023/04/23 07:38:46;;;;;;;12.20;7.30;;;;;;;;;;6243283;23;20490;-72
2023/04/23 07:41:12;;;;;;;11.07;6.85;;;;;;;;;;6242179;23;20057;-74
2023/04/23 07:43:37;;;;;;;12.98;7.00;;;;;;;;;;6243687;23;20007;-72
2023/04/23 07:46:03;;;;;;;9.40;6.03;;;;;;;;;;6215094;23;20343;-72
2023/04/23 07:48:29;;;;;;;12.23;6.25;;;;;;;;;;6212961;23;20082;-71
2023/04/23 07:50:55;;;;;;;10.70;6.60;;;;;;;;;;6244048;23;20077;-72
2023/04/23 07:53:21;;;;;;;9.93;5.97;;;;;;;;;;6241914;23;20049;-76
2023/04/23 07:55:46;;;;;;;10.27;5.95;;;;;;;;;;6218115;23;20031;-71
2023/04/23 07:58:11;;;;;;;10.07;5.47;;;;;;;;;;6216791;23;20040;-72
2023/04/23 08:00:37;;;;;;;11.18;6.28;;;;;;;;;;6245595;23;20004;-71
2023/04/23 08:03:02;;;;;;;10.07;5.55;;;;;;;;;;6242952;23;20042;-74
2023/04/23 08:05:27;;;;;;;8.70;4.95;;;;;;;;;;6243662;23;20010;-74
2023/04/23 08:07:53;;;;;;;11.13;5.10;;;;;;;;;;6219015;23;20094;-75
2023/04/23 08:10:18;;;;;;;6.80;4.65;;;;;;;;;;6217449;23;20023;-72
2023/04/23 08:12:43;;;;;;;12.18;5.15;;;;;;;;;;6219178;23;20004;-72
2023/04/23 08:15:09;;;;;;;9.70;4.95;;;;;;;;;;6218168;23;20028;-72
2023/04/23 08:17:35;;;;;;;10.45;5.30;;;;;;;;;;6218062;23;20044;-72
2023/04/23 08:20:00;;;;;;;8.18;4.47;;;;;;;;;;6245597;23;20024;-73
2023/04/23 08:22:26;;;;;;;8.10;4.85;;;;;;;;;;6244158;23;20000;-73
2023/04/23 08:24:51;;;;;;;9.70;4.90;;;;;;;;;;6245812;23;20369;-72
2023/04/23 08:27:17;;;;;;;8.95;4.35;;;;;;;;;;6243744;23;20008;-73
2023/04/23 08:29:42;;;;;;;9.55;4.55;;;;;;;;;;6245125;23;20083;-72
2023/04/23 08:32:07;;;;;;;8.40;4.40;;;;;;;;;;6218482;23;20008;-73
2023/04/23 08:34:33;;;;;;;9.13;4.60;;;;;;;;;;6245428;23;20011;-72
2023/04/23 08:36:58;;;;;;;9.35;5.00;;;;;;;;;;6242679;23;20011;-71
2023/04/23 08:39:23;;;;;;;8.50;3.78;;;;;;;;;;6245713;23;20008;-72
2023/04/23 08:41:54;;;;;;;7.80;4.20;;;;;;;;;;6244678;23;20035;-72
2023/04/23 08:44:23;;;;;;;6.53;3.90;;;;;;;;;;6244660;23;20004;-72
2023/04/23 08:46:49;;;;;;;9.10;3.70;;;;;;;;;;6246021;23;20320;-72
2023/04/23 08:49:16;;;;;;;8.48;3.80;;;;;;;;;;6217407;23;20095;-72
2023/04/23 08:52:15;;;;;;;7.43;3.60;;;;;;;;;;6244004;23;20011;-72
2023/04/23 08:54:46;;;;;;;6.85;3.50;;;;;;;;;;6214602;23;20023;-72
2023/04/23 08:57:13;;;;;;;7.45;3.17;;;;;;;;;;6243703;23;20047;-72
2023/04/23 08:59:39;;;;;;;11.48;3.45;;;;;;;;;;6242046;22;20012;-72
2023/04/23 09:02:08;;;;;;;5.13;3.10;;;;;;;;;;6213312;23;20060;-73
2023/04/23 09:04:34;;;;;;;7.25;3.05;;;;;;;;;;6216965;23;20000;-72
2023/04/23 09:07:00;;;;;;;6.00;2.72;;;;;;;;;;6243270;23;20100;-72
2023/04/23 09:09:28;;;;;;;5.45;2.58;;;;;;;;;;6214519;23;20011;-72
2023/04/23 09:11:57;;;;;;;7.18;2.38;;;;;;;;;;6215079;23;20039;-73
2023/04/23 09:14:26;;;;;;;9.32;3.08;;;;;;;;;;6192334;23;20504;-74
2023/04/23 09:16:51;;;;;;;7.32;2.72;;;;;;;;;;6217092;23;20000;-73
2023/04/23 09:19:18;;;;;;;7.05;2.50;;;;;;;;;;6242338;23;20011;-75
2023/04/23 09:21:45;;;;;;;8.60;2.22;;;;;;;;;;6242564;23;20004;-73
2023/04/23 09:24:11;;;;;;;6.90;2.05;;;;;;;;;;6243749;23;20063;-74
2023/04/23 09:26:47;;;;;;;7.28;2.05;;;;;;;;;;6243636;23;20054;-76
2023/04/23 09:29:17;;;;;;;5.40;2.15;;;;;;;;;;6217372;23;20073;-72
2023/04/23 09:31:50;;;;;;;6.85;2.22;;;;;;;;;;6245459;23;20035;-73
2023/04/23 09:34:18;;;;;;;7.78;2.15;;;;;;;;;;6245261;23;20415;-74
2023/04/23 09:36:44;;;;;;;5.80;2.45;;;;;;;;;;6244383;23;20003;-73
2023/04/23 09:39:14;;;;;;;8.93;2.55;;;;;;;;;;6216308;23;20019;-72
2023/04/23 09:41:40;;;;;;;6.30;2.00;;;;;;;;;;6219415;23;20011;-72
2023/04/23 09:44:07;;;;;;;5.53;1.58;;;;;;;;;;6245794;23;20000;-73
2023/04/23 09:46:42;;;;;;;8.60;1.70;;;;;;;;;;6218030;23;20009;-72
2023/04/23 09:49:09;;;;;;;6.88;1.85;;;;;;;;;;6217201;23;20381;-72
2023/04/23 09:51:39;;;;;;;7.32;1.67;;;;;;;;;;6243257;23;20348;-74
2023/04/23 09:54:31;;;;;;;3.15;1.58;;;;;;;;;;6215627;23;20027;-73
2023/04/23 09:57:00;;;;;;;5.55;1.70;;;;;;;;;;6209630;23;20081;-73
2023/04/23 09:59:28;;;;;;;4.22;1.38;;;;;;;;;;6215372;23;20012;-73
2023/04/23 10:01:54;;;;;;;6.82;1.80;;;;;;;;;;6216009;23;20012;-74
2023/04/23 10:04:22;;;;;;;5.20;1.23;;;;;;;;;;6239849;23;20015;-78
2023/04/23 10:06:58;;;;;;;3.75;1.30;;;;;;;;;;6240560;23;20058;-79
2023/04/23 10:09:25;;;;;;;4.47;1.30;;;;;;;;;;6241724;23;20026;-76
2023/04/23 10:11:52;;;;;;;3.42;1.50;;;;;;;;;;6243498;23;20004;-79
2023/04/23 10:14:21;;;;;;;6.05;1.27;;;;;;;;;;6242301;23;20007;-77
2023/04/23 10:16:49;;;;;;;3.75;1.30;;;;;;;;;;6245430;23;20030;-78
2023/04/23 10:19:18;;;;;;;4.00;1.30;;;;;;;;;;6214798;23;20323;-78
2023/04/23 10:21:47;;;;;;;4.20;1.30;;;;;;;;;;6239554;23;20015;-78
2023/04/23 10:24:13;;;;;;;5.45;1.40;;;;;;;;;;6206804;23;20079;-78
2023/04/23 10:26:41;;;;;;;4.70;1.50;;;;;;;;;;6208748;23;20482;-77
2023/04/23 10:29:12;;;;;;;5.18;1.60;;;;;;;;;;6201842;23;20062;-77
2023/04/23 10:31:38;;;;;;;4.95;1.40;;;;;;;;;;6236785;23;20004;-78
2023/04/23 10:34:05;;;;;;;5.60;1.15;;;;;;;;;;6232461;23;20038;-78
2023/04/23 10:36:32;;;;;;;5.95;1.40;;;;;;;;;;6234593;23;20446;-77
2023/04/23 10:39:02;;;;;;;4.30;1.40;;;;;;;;;;6207846;23;20012;-78
2023/04/23 10:41:34;;;;;;;2.70;1.13;;;;;;;;;;6207618;23;20015;-78
2023/04/23 10:43:59;;;;;;;6.72;1.40;;;;;;;;;;6208231;23;20292;-78
2023/04/23 10:46:30;;;;;;;2.28;1.10;;;;;;;;;;6235536;23;20008;-78
2023/04/23 10:49:15;;;;;;;8.05;1.52;;;;;;;;;;6234185;23;20015;-77
2023/04/23 10:51:44;;;;;;;3.85;1.65;;;;;;;;;;6233637;23;20342;-77
2023/04/23 10:54:10;;;;;;;7.10;1.40;;;;;;;;;;6234060;23;20012;-76
2023/04/23 10:56:39;;;;;;;3.53;1.33;;;;;;;;;;6234222;23;20012;-78
2023/04/23 10:59:26;;;;;;;4.50;1.13;;;;;;;;;;6207742;22;20015;-78
2023/04/23 11:01:52;;;;;;;5.55;1.20;;;;;;;;;;6206506;23;20011;-78
2023/04/23 11:04:26;;;;;;;6.93;1.73;;;;;;;;;;6233912;23;20327;-78
2023/04/23 11:06:54;;;;;;;4.47;1.67;;;;;;;;;;6232965;23;20011;-78
2023/04/23 11:09:29;;;;;;;3.47;1.30;;;;;;;;;;6234512;23;20444;-78
2023/04/23 11:11:56;;;;;;;2.80;1.10;;;;;;;;;;6205014;23;20426;-77
2023/04/23 11:14:36;;;;;;;5.18;1.25;;;;;;;;;;6234566;23;20083;-76
2023/04/23 11:17:05;;;;;;;4.22;1.13;;;;;;;;;;6204320;23;20430;-78
2023/04/23 11:19:34;;;;;;;3.85;1.13;;;;;;;;;;6233488;23;20030;-78
2023/04/23 11:22:18;;;;;;;2.80;1.13;;;;;;;;;;6235078;23;20019;-78
2023/04/23 11:24:45;;;;;;;5.47;1.48;;;;;;;;;;6207431;23;20008;-78
2023/04/23 11:27:14;;;;;;;3.45;1.27;;;;;;;;;;6194107;23;20022;-78
2023/04/23 11:29:42;;;;;;;4.20;1.48;;;;;;;;;;6226345;23;20190;-78
2023/04/23 11:32:14;;;;;;;6.72;1.63;;;;;;;;;;6229101;23;20010;-77
2023/04/23 11:34:42;;;;;;;4.68;1.38;;;;;;;;;;6233208;23;20059;-78
2023/04/23 11:37:12;;;;;;;5.10;1.73;;;;;;;;;;6233185;23;20475;-78
2023/04/23 11:39:42;;;;;;;3.03;1.52;;;;;;;;;;6235805;23;20439;-78
2023/04/23 11:42:21;;;;;;;4.10;1.25;;;;;;;;;;6232318;23;20004;-78
2023/04/23 11:44:47;;;;;;;5.18;1.52;;;;;;;;;;6231889;23;20130;-78
2023/04/23 11:47:15;;;;;;;3.60;1.17;;;;;;;;;;6232300;23;20362;-77
2023/04/23 11:49:42;;;;;;;2.78;1.27;;;;;;;;;;6233907;23;20389;-78
2023/04/23 11:52:07;;;;;;;5.05;1.60;;;;;;;;;;6233875;23;20034;-78
2023/04/23 11:54:33;;;;;;;4.03;1.23;;;;;;;;;;6234023;23;20015;-78
2023/04/23 11:57:00;;;;;;;3.30;1.50;;;;;;;;;;6235081;23;20022;-78
2023/04/23 11:59:26;;;;;;;4.72;1.42;;;;;;;;;;6208184;23;20632;-78
2023/04/23 12:01:57;;;;;;;4.88;1.60;;;;;;;;;;6207667;23;20350;-78
2023/04/23 12:04:25;;;;;;;4.38;1.50;;;;;;;;;;6232983;23;20003;-77
2023/04/23 12:06:53;;;;;;;2.85;1.52;;;;;;;;;;6235272;23;20460;-78
2023/04/23 12:09:20;;;;;;;3.90;1.55;;;;;;;;;;6237321;23;20043;-78
2023/04/23 12:11:46;;;;;;;4.72;1.80;;;;;;;;;;6234568;23;20011;-78
2023/04/23 12:14:13;;;;;;;5.22;1.55;;;;;;;;;;6207496;23;20031;-77
2023/04/23 12:16:43;;;;;;;7.65;2.25;;;;;;;;;;6234890;23;20011;-78
2023/04/23 12:19:17;;;;;;;3.75;1.42;;;;;;;;;;6234889;23;20015;-78
2023/04/23 12:22:00;;;;;;;5.13;1.35;;;;;;;;;;6208635;23;20018;-78
2023/04/23 12:24:30;;;;;;;6.00;1.45;;;;;;;;;;6235622;23;20319;-73
2023/04/23 12:27:01;;;;;;;3.53;1.35;;;;;;;;;;6209994;23;20241;-73
2023/04/23 12:29:28;;;;;;;3.00;1.10;;;;;;;;;;6236448;23;20342;-73
2023/04/23 12:31:57;;;;;;;2.13;0.85;;;;;;;;;;6232551;23;20723;-76
2023/04/23 12:34:22;;;;;;;2.65;1.13;;;;;;;;;;6204942;23;20016;-73
2023/04/23 12:36:50;;;;;;;2.78;1.00;;;;;;;;;;6209266;23;20095;-73
2023/04/23 12:39:23;;;;;;;3.80;1.13;;;;;;;;;;6237392;23;20455;-74
2023/04/23 12:41:51;;;;;;;3.00;1.27;;;;;;;;;;6235849;23;20004;-76
2023/04/23 12:44:16;;;;;;;3.50;1.25;;;;;;;;;;6236276;23;20064;-76
2023/04/23 12:46:41;;;;;;;3.60;1.20;;;;;;;;;;6235132;23;20093;-74
2023/04/23 12:49:07;;;;;;;4.07;1.30;;;;;;;;;;6209647;23;20016;-76
2023/04/23 12:51:32;;;;;;;1.98;0.90;;;;;;;;;;6236361;23;20439;-74
2023/04/23 12:53:57;;;;;;;4.05;1.85;;;;;;;;;;6208106;23;20003;-74
2023/04/23 12:56:23;;;;;;;3.90;1.10;;;;;;;;;;6235120;23;20032;-76
2023/04/23 12:58:48;;;;;;;5.93;1.10;;;;;;;;;;6237676;22;20016;-74
2023/04/23 13:01:14;;;;;;;3.05;1.50;;;;;;;;;;6236407;23;20009;-73
2023/04/23 13:03:39;;;;;;;3.28;1.20;;;;;;;;;;6230770;23;20084;-74
2023/04/23 13:06:06;;;;;;;3.28;1.30;;;;;;;;;;6209939;23;20012;-74
2023/04/23 13:08:32;;;;;;;3.70;1.20;;;;;;;;;;6234210;23;20012;-73
2023/04/23 13:10:58;;;;;;;3.85;1.48;;;;;;;;;;6209882;23;20008;-76
2023/04/23 13:13:23;;;;;;;3.95;1.38;;;;;;;;;;6235607;23;20228;-73
2023/04/23 13:15:48;;;;;;;5.13;1.45;;;;;;;;;;6236218;23;20004;-74
2023/04/23 13:18:14;;;;;;;3.85;1.23;;;;;;;;;;6207318;23;20338;-75
2023/04/23 13:20:39;;;;;;;5.15;1.27;;;;;;;;;;6208974;23;20016;-73
2023/04/23 13:23:07;;;;;;;2.45;1.00;;;;;;;;;;6208733;23;20004;-74
2023/04/23 13:25:33;;;;;;;3.65;1.08;;;;;;;;;;6234880;23;20339;-76
2023/04/23 13:27:58;;;;;;;3.67;1.33;;;;;;;;;;6207584;23;20357;-75
2023/04/23 13:30:24;;;;;;;3.75;1.13;;;;;;;;;;6231663;23;20413;-76
2023/04/23 13:32:49;;;;;;;3.28;1.00;;;;;;;;;;6202455;23;20075;-74
2023/04/23 13:35:15;;;;;;;3.03;1.05;;;;;;;;;;6233801;23;20089;-74
2023/04/23 13:37:41;;;;;;;4.05;1.40;;;;;;;;;;6203238;23;20008;-75
2023/04/23 13:40:07;;;;;;;2.42;1.05;;;;;;;;;;6203865;23;20047;-75
2023/04/23 13:42:33;;;;;;;3.55;1.10;;;;;;;;;;6203872;23;20295;-74
2023/04/23 13:44:58;;;;;;;3.97;1.10;;;;;;;;;;6230695;23;20445;-74
2023/04/23 13:47:25;;;;;;;7.15;1.10;;;;;;;;;;6233997;23;20062;-74
2023/04/23 13:49:50;;;;;;;4.78;0.88;;;;;;;;;;6210312;23;20015;-73
2023/04/23 13:52:16;;;;;;;3.47;0.93;;;;;;;;;;6207781;23;20011;-72
2023/04/23 13:54:41;;;;;;;7.53;1.30;;;;;;;;;;6235901;23;20093;-74
2023/04/23 13:57:06;;;;;;;3.80;1.20;;;;;;;;;;6210924;23;20004;-74
2023/04/23 13:59:32;;;;;;;2.72;0.80;;;;;;;;;;6212107;23;20342;-73
2023/04/23 14:01:57;;;;;;;2.80;0.80;;;;;;;;;;6209558;23;20012;-75
2023/04/23 14:04:23;;;;;;;2.33;0.90;;;;;;;;;;6210795;23;20506;-73
2023/04/23 14:06:48;;;;;;;3.55;0.90;;;;;;;;;;6209471;23;20457;-73
2023/04/23 14:09:14;;;;;;;4.07;1.00;;;;;;;;;;6237157;23;20015;-73
2023/04/23 14:11:40;;;;;;;4.60;0.90;;;;;;;;;;6209692;23;20098;-73
2023/04/23 14:14:06;;;;;;;2.13;0.80;;;;;;;;;;6207156;23;20004;-73
2023/04/23 14:16:31;;;;;;;3.47;0.90;;;;;;;;;;6209765;23;20054;-73
2023/04/23 14:18:57;;;;;;;2.72;1.00;;;;;;;;;;6208523;23;20004;-75
2023/04/23 14:21:22;;;;;;;5.28;1.00;;;;;;;;;;6210066;23;20036;-74
2023/04/23 14:24:15;;;;;;;4.45;1.10;;;;;;;;;;6236059;23;20004;-74
2023/04/23 14:26:42;;;;;;;3.13;1.10;;;;;;;;;;6237436;23;20052;-74
2023/04/23 14:29:17;;;;;;;3.60;1.20;;;;;;;;;;6237766;23;20008;-74